Oxford, Indiana
Current Conditions -  °F | °C
As of 7:54 PM on Sunday 23 Nov 2014 (Local Time) from KLAF Reporting Station
Light Rain Light Rain  
Wind Chill: 51°   Ceiling: 900
Heat Index: 51°   Visibility: 6mi
Dew Point: 50°   Wind: 7mph
Humidity: 96%   Direction: 140°SE
Pressure: 29.31"   Gusts: NA
Location:  40.52°N, 87.25°W
Report Text: KLAF 240054Z 14006KT 6SM -RA BR OVC009 11/10 A2931 RMK AO2 CIG 006V012 SLP926 P0011 T01060100
Loading
Personal Weather Stations






























Interactive Weather Map New forecast layout! Learn more

10-Day Weather Forecast

Advertisements
Track Severe Weather on mobile